Welcome to our Virtual Airline
Sign-in:

Flight MFCT00030-6A0

  • Submitted By: Jim Ryan
  • Departure Airport: Point Baker SPB (KPB)
  • Arrival Airport: Cape Pole SPB (Z71)
  • Aircraft: DHC2 BEAVERA (N001MM)
  • Flight Time: 00.29.54
  • Date Submitted: 2018/08/31
  • Route: TF04 EDA
  • Status: Accepted
Flight Details
Gross Revenue:
(5 load / $ 49.00 per unit
$ 245.00
Fuel Cost:
(46.72 fuel used @ 5.1 / unit)
$ 238.27

Additional Log Information:

View Log

FS[09:28] ----- Flight Opened -----
FS[09:28] Cigar Box - 1.1.4.0
FS[09:28] FS: FSX
FS[09:28] FSUIPC: v4.955
FS[09:28] Flight Number: MFCT00030-6A0
FS[09:28] FS Aircraft: DHC-2A N001MM New Misty Amphibian
FS[09:28] FS Model: DHC2
FS[09:28] FS Type: DH Beaver
FS[09:28] Departure: KPB
FS[09:28] Arrival: Z71
FS[09:28] Flight Level: 1500
FS[09:28] Flight Type:
FS[09:28] Passengers: 5
FS[09:28] FOB: 570 lbs
FS[09:28] Distance to Departure: 0.13 miles
FS[09:28] Gate: n/a
FS[09:28] NOTE: Parking Brake Ignored
FS[09:28] Crash Detection: Disabled
FS[09:28] Crash Detection Aircraft: Disabled
FS[09:28] Engines: 1 Piston
FS[09:28] NOTE: Boarding has started
FS[09:28] Parking Brake: Engaged
FS[09:28] Landing Gear: Retracted
FS[09:28] Main Door Closed
FS[09:28] COM1: 121.90
FS[09:28] COM2: 127.80
FS[09:28] Transponder: 1200
FS[09:28] NAV1: 117.90
FS[09:28] NAV2: 113.30
FS[09:28] ADF1: 890.0
FS[09:28] ADF2: 890.0
FS[09:28] Navigation Mode: GPS
FS[09:28] Navigation Mode: GPS
FS[09:34] Light Data: Navigation ON
FS[09:34] Light Data: Beacon ON
FS[09:34] Light Data: Landing lights ON
FS[09:34] Light Data: Taxi lights ON
FS[09:34] Light Data: Strobe lights ON
FS[09:34] Light Data: Instrument lights ON
FS[09:34] Light Data: Recognition lights ON
FS[09:34] Light Data: Wing lights ON
FS[09:34] Light Data: Logo lights ON
FS[09:34] Light Data: Cabin lights ON
FS[09:35] Light Data: Landing lights OFF
FS[09:35] Engine 1: Started
FS[09:35] Flaps: Position 2
FS[09:36] NOTE: Taxi started
FS[09:36] NOTE: ----- TAKE OFF -----
FS[09:36] GS: 62 knots
FS[09:36] TAS: 59 knots
FS[09:36] IAS: 60 knots
FS[09:36] VS: 22 fpm
FS[09:36] FOB: 569 lbs
FS[09:36] Heading: 341°
FS[09:36] Pitch: 4°
FS[09:36] Bank: 1°
FS[09:36] Aircraft Weight: 4228.88 lbs
FS[09:36] Nearest Airport: KPB
FS[09:36] Distance: 0.26 miles
FS[09:36] Runway: ???
FS[09:36] Ground Surface: Water
FS[09:36] Ground Condition: Normal
FS[09:36] NOTE: Weather Report
FS[09:36] Wind Heading: 133°
FS[09:36] Wind Speed: 5 knots
FS[09:36] OAT: 0° C
FS[09:36] TAT: 1° C
FS[09:36] Precipitation: None
FS[09:36] Dew Point: -3° C
FS[09:36] Visibility: 49 miles
FS[09:36] METAR: KPBF 312053Z AUTO 07004KT 10SM CLR 33/21 A2997 RMK AO2 SLP147 T03330211 56024 $KPBG 312053Z AUTO 14011KT 10SM CLR 24/15 A3024 RMK AO2 SLP241 T02440150 57007KPBH 312135Z AUTO 17012G18KT 10SM SCT025 BKN033 OVC060 23/20 A2989 RMK AO2 T02290195KPBI 312053Z 09015KT 10SM SCT025 SCT046 BKN200 31/23 A3000 RMK AO2 SLP157 T03060233 56026KPBX 312115Z AUTO 00000KT 10SM VCTSDZ BKN110 21/21 A3014 RMK AO2 LTG DSNT E THRU W T02120205
FS[09:36] NOTE: Climb started
FS[09:36] View Mode: Spot Plane
FS[09:36] Flaps: Position 1
FS[09:36] GS: 73 knots
FS[09:36] TAS: 69 knots
FS[09:36] IAS: 70 knots
FS[09:36] VS: 729 fpm
FS[09:36] Flaps: Position 0
FS[09:36] GS: 77 knots
FS[09:36] TAS: 74 knots
FS[09:36] IAS: 76 knots
FS[09:36] VS: 633 fpm
FS[09:36] Autopilot: Engaged
FS[09:36] AGL: 354 ft
FS[09:36] AMSL: 354 ft
FS[09:39] NOTE: TOC reached
FS[09:39] NOTE: Cruise started
FS[09:39] GS: 126 knots
FS[09:39] TAS: 134 knots
FS[09:39] IAS: 135 knots
FS[09:39] VS: 199 fpm
FS[09:39] FOB: 554 lbs
FS[09:39] Heading: 132°
FS[09:39] Pitch: 0°
FS[09:39] Bank: 0°
FS[09:39] Aircraft Weight: 4214.02 lbs
FS[09:40] Recovery: Flight Saved
FS[09:44] FS: Paused
FS[09:44] FS: Unpaused
FS[09:45] Recovery: Flight Saved
FS[09:48] Recovery: Flight Saved
FS[09:53] Recovery: Flight Saved
FS[09:56] Recovery: Flight Saved
FS[10:00] Recovery: Flight Saved
FS[10:01] NOTE: TOD reached
FS[10:01] NOTE: Descent started
FS[10:01] GS: 128 knots
FS[10:01] TAS: 131 knots
FS[10:01] IAS: 132 knots
FS[10:01] VS: -515 fpm
FS[10:01] FOB: 471 lbs
FS[10:01] Heading: 293°
FS[10:01] Pitch: 2°
FS[10:01] Bank: -9°
FS[10:01] Aircraft Weight: 4131.64 lbs
FS[10:01] NOTE: On approach
FS[10:02] Flaps: Position 1
FS[10:02] GS: 93 knots
FS[10:02] TAS: 100 knots
FS[10:02] IAS: 101 knots
FS[10:02] VS: -522 fpm
FS[10:02] Flaps: Position 2
FS[10:02] GS: 69 knots
FS[10:02] TAS: 79 knots
FS[10:02] IAS: 80 knots
FS[10:02] VS: -572 fpm
FS[10:02] Autopilot: Disengaged
FS[10:02] AGL: 738 ft
FS[10:02] AMSL: 738 ft
FS[10:02] Flaps: Position 4
FS[10:02] GS: 62 knots
FS[10:02] TAS: 70 knots
FS[10:02] IAS: 71 knots
FS[10:02] VS: -796 fpm
FS[10:03] NOTE: ----- LANDED -----
FS[10:03] Landing Rate: -126.11 fpm
FS[10:03] GS: 42 knots
FS[10:03] TAS: 48 knots
FS[10:03] IAS: 49 knots
FS[10:03] VS: -123 fpm
FS[10:03] FOB: 468 lbs
FS[10:03] Heading: 66°
FS[10:03] Pitch: 3°
FS[10:03] Bank: 0°
FS[10:03] Aircraft Weight: 4128.16 lbs
FS[10:03] Nearest Airport: 2Z1
FS[10:03] Distance: 0.53 miles
FS[10:03] Runway: ???
FS[10:03] Ground Surface: Water
FS[10:03] Ground Condition: Normal
FS[10:03] NOTE: Weather Report
FS[10:03] Wind Heading: 8°
FS[10:03] Wind Speed: 8 knots
FS[10:03] OAT: 1° C
FS[10:03] TAT: 1° C
FS[10:03] Precipitation: None
FS[10:03] Dew Point: 0° C
FS[10:03] Visibility: 49 miles
FS[10:03] METAR: No METAR available for Z71.
FS[10:03] View Mode: Virtual Cockpit
FS[10:03] Flaps: Position 0
FS[10:03] NOTE: Taxi started
FS[10:05] Engine 1: Stopped
FS[10:05] Light Data: Navigation OFF
FS[10:05] Light Data: Beacon OFF
FS[10:05] Light Data: Taxi lights OFF
FS[10:05] Light Data: Strobe lights OFF
FS[10:05] Light Data: Instrument lights OFF
FS[10:05] Light Data: Recognition lights OFF
FS[10:05] Light Data: Wing lights OFF
FS[10:05] Light Data: Logo lights OFF
FS[10:05] Light Data: Cabin lights OFF
FS[10:05] Distance to Arrival: 0.11 miles
FS[10:05] Gate: n/a
FS[10:05] NOTE: Flight Completed
FS[10:05] FS Aircraft: DHC-2A N001MM New Misty Amphibian
FS[10:05] FS Model: DHC2
FS[10:05] FS Type: DH Beaver
FS[10:05] FOB: 467 lbs
FS[10:05] Fuel Used: 103 lbs
FS[10:05] Flight Time: 00:29:54
FS[10:05] Flight Time (Dawn): 00:00:00
FS[10:05] Flight Time (Day): 00:29:54
FS[10:05] Flight Time (Dusk): 00:00:00
FS[10:05] Flight Time (Night): 00:00:00
FS[10:05] Total Landings: 1
FS[10:05] MaxSim Rate: 0x
FS[10:05] Cigar Box - 1.1.4.0
FS[10:05] ----- Flight Closed -----

Route Map